createdAt,value
2019-05-13T00:02:26.123Z,99.90
2019-05-13T00:04:53.804Z,99.90
2019-05-13T00:07:23.810Z,99.90
2019-05-13T00:09:50.996Z,99.90
2019-05-13T00:12:18.743Z,99.90
2019-05-13T00:14:46.693Z,99.90
2019-05-13T00:17:14.738Z,99.90
2019-05-13T00:19:44.281Z,99.90
2019-05-13T00:22:14.090Z,99.90
2019-05-13T00:24:43.716Z,99.90
2019-05-13T00:27:14.109Z,99.90
2019-05-13T00:29:44.250Z,99.90
2019-05-13T00:32:13.470Z,99.90
2019-05-13T00:34:41.319Z,99.90
2019-05-13T00:37:11.754Z,99.90
2019-05-13T00:39:40.013Z,99.90
2019-05-13T00:42:07.652Z,99.90
2019-05-13T00:44:35.343Z,99.90
2019-05-13T00:47:04.475Z,99.90
2019-05-13T00:49:34.575Z,99.90
2019-05-13T00:52:03.841Z,99.90
2019-05-13T00:54:33.999Z,99.90
2019-05-13T00:57:03.934Z,99.90
2019-05-13T00:59:33.906Z,99.90
2019-05-13T01:02:03.396Z,99.90
2019-05-13T01:04:33.437Z,99.90
2019-05-13T01:07:00.619Z,99.90
2019-05-13T01:09:28.256Z,99.90
2019-05-13T01:11:56.458Z,99.90
2019-05-13T01:14:24.543Z,99.90
2019-05-13T01:16:54.371Z,99.90
2019-05-13T01:19:23.678Z,99.90
2019-05-13T01:21:53.856Z,99.90
2019-05-13T01:24:21.545Z,99.90
2019-05-13T01:26:49.786Z,99.90
2019-05-13T01:29:17.833Z,99.90
2019-05-13T01:31:45.778Z,99.90
2019-05-13T01:34:14.292Z,99.90
2019-05-13T01:36:44.478Z,99.90
2019-05-13T01:39:13.721Z,99.90
2019-05-13T01:41:43.658Z,99.90
2019-05-13T01:44:10.540Z,99.90
2019-05-13T01:46:38.209Z,99.90
2019-05-13T01:49:06.088Z,99.90
2019-05-13T01:51:33.828Z,99.90
2019-05-13T01:54:03.967Z,99.90
2019-05-13T01:56:33.817Z,99.90
2019-05-13T01:59:03.451Z,99.90
2019-05-13T02:01:33.616Z,99.90
2019-05-13T02:04:03.691Z,99.90
2019-05-13T02:06:30.515Z,99.90
2019-05-13T02:08:58.194Z,99.90
2019-05-13T02:11:26.182Z,99.90
2019-05-13T02:13:54.171Z,99.90
2019-05-13T02:16:24.252Z,99.90
2019-05-13T02:18:53.622Z,99.90
2019-05-13T02:21:21.039Z,99.90
2019-05-13T02:23:49.963Z,99.90
2019-05-13T02:26:17.841Z,99.90
2019-05-13T02:28:45.393Z,99.90
2019-05-13T02:31:21.203Z,99.90
2019-05-13T02:33:42.904Z,99.90
2019-05-13T02:36:13.250Z,99.90
2019-05-13T02:38:42.780Z,99.90
2019-05-13T02:41:13.509Z,99.90
2019-05-13T02:43:44.892Z,99.90
2019-05-13T02:46:12.833Z,99.90
2019-05-13T02:48:42.257Z,99.90
2019-05-13T02:51:12.453Z,99.90
2019-05-13T02:53:39.874Z,99.90
2019-05-13T02:56:07.806Z,99.90
2019-05-13T02:58:35.499Z,99.90
2019-05-13T03:01:03.633Z,99.90
2019-05-13T03:03:32.760Z,99.90
2019-05-13T03:06:02.873Z,99.90
2019-05-13T03:08:40.927Z,99.90
2019-05-13T03:11:02.930Z,99.90
2019-05-13T03:13:32.804Z,99.90
2019-05-13T03:16:13.168Z,99.90
2019-05-13T03:18:43.219Z,99.90
2019-05-13T03:21:12.684Z,99.90
2019-05-13T03:23:43.581Z,99.90
2019-05-13T03:26:13.071Z,99.90
2019-05-13T03:28:43.078Z,99.90
2019-05-13T03:31:15.753Z,99.90
2019-05-13T03:33:45.301Z,99.90
2019-05-13T03:36:15.111Z,99.90
2019-05-13T03:38:58.009Z,99.90
2019-05-13T03:41:12.240Z,99.90
2019-05-13T03:43:43.069Z,99.90
2019-05-13T03:46:12.295Z,99.90
2019-05-13T03:48:42.807Z,99.90
2019-05-13T03:51:13.299Z,99.90
2019-05-13T03:53:42.973Z,99.90
2019-05-13T03:56:12.869Z,99.90
2019-05-13T03:58:43.387Z,99.90
2019-05-13T04:01:12.967Z,99.90
2019-05-13T04:03:43.516Z,99.90
2019-05-13T04:06:13.526Z,99.90
2019-05-13T04:08:43.408Z,99.90
2019-05-13T04:11:12.585Z,99.90
2019-05-13T04:13:42.974Z,99.90
2019-05-13T04:16:12.683Z,99.90
2019-05-13T04:18:42.661Z,99.90
2019-05-13T04:21:12.603Z,99.90
2019-05-13T04:23:42.349Z,99.90
2019-05-13T04:26:09.049Z,99.90
2019-05-13T04:28:38.520Z,99.90
2019-05-13T04:31:06.699Z,99.90
2019-05-13T04:33:34.551Z,99.90
2019-05-13T04:36:02.760Z,99.90
2019-05-13T04:38:33.023Z,99.90
2019-05-13T04:41:03.133Z,99.90
2019-05-13T04:43:33.698Z,99.90
2019-05-13T04:46:02.716Z,99.90
2019-05-13T04:48:33.871Z,99.90
2019-05-13T04:51:03.717Z,99.90
2019-05-13T04:53:33.501Z,99.90
2019-05-13T04:56:03.354Z,99.90
2019-05-13T04:58:32.765Z,99.90
2019-05-13T05:01:40.053Z,99.90
2019-05-13T05:04:28.730Z,99.90
2019-05-13T05:06:59.043Z,99.90
2019-05-13T05:12:56.893Z,99.90
2019-05-13T05:15:56.967Z,99.90
2019-05-13T05:19:14.721Z,99.90
2019-05-13T05:22:02.581Z,99.90
2019-05-13T05:25:06.852Z,99.90
2019-05-13T05:28:12.023Z,99.90
2019-05-13T05:31:34.032Z,99.90
2019-05-13T05:34:41.997Z,99.90
2019-05-13T05:37:31.251Z,99.90
2019-05-13T05:40:02.325Z,99.90
2019-05-13T05:42:34.431Z,99.90
2019-05-13T05:45:05.687Z,99.90
2019-05-13T05:47:36.783Z,99.90
2019-05-13T05:50:07.235Z,99.90
2019-05-13T05:52:38.139Z,99.90
2019-05-13T05:55:06.635Z,99.90
2019-05-13T05:57:41.843Z,99.90
2019-05-13T06:00:11.529Z,99.90
2019-05-13T06:02:45.580Z,99.90
2019-05-13T06:05:14.141Z,99.90
2019-05-13T06:07:43.076Z,99.90
2019-05-13T06:10:13.259Z,99.90
2019-05-13T06:12:45.878Z,99.90
2019-05-13T06:15:15.144Z,99.90
2019-05-13T06:17:43.171Z,99.90
2019-05-13T06:20:13.437Z,99.90
2019-05-13T06:22:42.524Z,99.90
2019-05-13T06:25:14.406Z,99.90
2019-05-13T06:27:42.250Z,99.90
2019-05-13T06:30:12.587Z,99.90
2019-05-13T06:32:41.850Z,99.90
2019-05-13T06:35:14.921Z,99.90
2019-05-13T06:37:43.042Z,99.90
2019-05-13T06:40:12.310Z,99.90
2019-05-13T06:42:46.377Z,99.90
2019-05-13T06:45:21.716Z,99.90
2019-05-13T06:47:56.835Z,99.90
2019-05-13T06:50:26.045Z,99.90
2019-05-13T06:53:08.574Z,99.90
2019-05-13T06:55:37.105Z,99.90
2019-05-13T06:58:05.408Z,99.90
2019-05-13T07:00:35.004Z,99.90
2019-05-13T07:03:03.926Z,99.90
2019-05-13T07:05:32.029Z,99.90
2019-05-13T07:08:01.945Z,99.10
2019-05-13T07:10:32.098Z,97.20
2019-05-13T07:13:02.102Z,93.60
2019-05-13T07:15:31.476Z,96.80
2019-05-13T07:18:02.125Z,93.00
2019-05-13T07:20:32.971Z,93.10
2019-05-13T07:23:11.934Z,91.60
2019-05-13T07:25:46.702Z,91.60
2019-05-13T07:28:21.922Z,90.90
2019-05-13T07:30:51.687Z,92.60
2019-05-13T07:33:24.132Z,84.90
2019-05-13T07:36:02.835Z,90.20
2019-05-13T07:38:35.903Z,87.50
2019-05-13T07:41:07.528Z,88.70
2019-05-13T07:43:42.499Z,82.80
2019-05-13T07:46:22.588Z,86.20
2019-05-13T07:49:02.202Z,86.20
2019-05-13T07:51:37.058Z,81.30
2019-05-13T07:54:11.248Z,78.50
2019-05-13T07:56:45.402Z,75.20
2019-05-13T08:02:32.003Z,72.50
2019-05-13T08:05:25.537Z,72.60
2019-05-13T08:08:02.328Z,71.40
2019-05-13T08:11:01.094Z,68.10
2019-05-13T08:13:34.844Z,66.20
2019-05-13T08:16:16.516Z,70.90
2019-05-13T08:18:46.827Z,71.10
2019-05-13T08:21:17.033Z,74.60
2019-05-13T08:23:45.486Z,71.30
2019-05-13T08:26:24.705Z,66.30
2019-05-13T08:29:01.639Z,63.50
2019-05-13T08:31:37.260Z,64.00
2019-05-13T08:34:07.346Z,61.40
2019-05-13T08:36:42.115Z,59.30
2019-05-13T08:39:12.508Z,60.00
2019-05-13T08:41:42.319Z,58.30
2019-05-13T08:44:12.321Z,57.20
2019-05-13T08:46:41.495Z,56.00
2019-05-13T08:49:12.015Z,56.10
2019-05-13T08:51:42.080Z,55.00
2019-05-13T08:54:11.949Z,53.60
2019-05-13T08:56:41.601Z,53.50
2019-05-13T08:59:11.525Z,51.60
2019-05-13T09:01:42.457Z,51.40
2019-05-13T09:04:11.886Z,51.70
2019-05-13T09:06:41.889Z,50.90
2019-05-13T09:09:16.472Z,51.50
2019-05-13T09:11:45.364Z,51.60
2019-05-13T09:14:18.749Z,50.90
2019-05-13T09:16:47.818Z,50.20
2019-05-13T09:19:16.942Z,49.50
2019-05-13T09:21:45.352Z,47.10
2019-05-13T09:24:25.006Z,43.60
2019-05-13T09:26:43.805Z,41.70
2019-05-13T09:29:12.535Z,39.30
2019-05-13T09:31:41.536Z,37.00
2019-05-13T09:34:12.067Z,36.80
2019-05-13T09:36:44.276Z,36.50
2019-05-13T09:39:12.831Z,36.10
2019-05-13T09:41:44.484Z,34.70
2019-05-13T09:44:12.381Z,33.90
2019-05-13T09:46:42.557Z,34.10
2019-05-13T09:49:19.197Z,34.10
2019-05-13T09:51:41.705Z,36.80
2019-05-13T09:54:11.690Z,39.20
2019-05-13T09:56:41.327Z,38.90
2019-05-13T09:59:11.537Z,38.80
2019-05-13T10:01:38.951Z,39.10
2019-05-13T10:04:07.552Z,36.80
2019-05-13T10:06:35.428Z,34.60
2019-05-13T10:09:05.229Z,33.90
2019-05-13T10:11:33.077Z,32.20
2019-05-13T10:14:02.121Z,32.40
2019-05-13T10:16:31.352Z,31.90
2019-05-13T10:19:01.687Z,32.60
2019-05-13T10:21:32.639Z,34.20
2019-05-13T10:24:01.273Z,33.10
2019-05-13T10:26:31.953Z,32.50
2019-05-13T10:28:59.294Z,29.90
2019-05-13T10:31:27.344Z,28.50
2019-05-13T10:33:55.016Z,28.10
2019-05-13T10:36:22.827Z,28.10
2019-05-13T10:38:52.196Z,28.70
2019-05-13T10:41:22.272Z,28.80
2019-05-13T10:43:52.008Z,29.00
2019-05-13T10:46:22.172Z,28.90
2019-05-13T10:48:52.430Z,29.10
2019-05-13T10:51:22.310Z,28.90
2019-05-13T10:53:52.779Z,28.80
2019-05-13T10:56:19.615Z,27.70
2019-05-13T10:58:47.554Z,27.60
2019-05-13T11:01:15.928Z,28.20
2019-05-13T11:03:43.848Z,28.80
2019-05-13T11:06:12.675Z,28.90
2019-05-13T11:08:42.305Z,29.40
2019-05-13T11:11:13.085Z,30.00
2019-05-13T11:13:52.147Z,29.40
2019-05-13T11:16:12.166Z,28.60
2019-05-13T11:18:40.667Z,29.00
2019-05-13T11:21:08.900Z,28.50
2019-05-13T11:23:36.675Z,27.60
2019-05-13T11:26:04.489Z,27.40
2019-05-13T11:28:32.574Z,28.70
2019-05-13T11:31:03.240Z,29.30
2019-05-13T11:33:31.880Z,29.20
2019-05-13T11:36:02.933Z,28.30
2019-05-13T11:38:32.108Z,28.00
2019-05-13T11:41:01.618Z,27.10
2019-05-13T11:43:28.928Z,28.40
2019-05-13T11:45:56.897Z,28.60
2019-05-13T11:48:25.690Z,27.70
2019-05-13T11:50:54.420Z,27.40
2019-05-13T11:53:37.972Z,26.20
2019-05-13T11:55:52.317Z,26.90
2019-05-13T11:58:20.590Z,27.90
2019-05-13T12:00:53.257Z,27.10
2019-05-13T12:03:23.535Z,26.00
2019-05-13T12:06:44.175Z,25.80
2019-05-13T12:08:37.586Z,25.30
2019-05-13T12:11:06.208Z,25.00
2019-05-13T12:13:34.784Z,24.40
2019-05-13T12:16:03.673Z,24.40
2019-05-13T12:18:34.567Z,24.10
2019-05-13T12:21:04.307Z,23.10
2019-05-13T12:23:32.425Z,23.10
2019-05-13T12:26:04.197Z,25.20
2019-05-13T12:28:30.521Z,26.10
2019-05-13T12:30:58.652Z,26.60
2019-05-13T12:33:27.222Z,27.60
2019-05-13T12:35:55.701Z,26.60
2019-05-13T12:38:23.450Z,26.20
2019-05-13T12:40:52.874Z,26.20
2019-05-13T12:43:23.877Z,25.60
2019-05-13T12:45:53.239Z,25.90
2019-05-13T12:48:22.967Z,25.60
2019-05-13T12:50:53.905Z,25.30
2019-05-13T12:53:22.286Z,25.00
2019-05-13T12:55:53.775Z,24.50
2019-05-13T12:58:23.468Z,23.30
2019-05-13T13:00:53.272Z,23.30
2019-05-13T13:03:23.353Z,23.60
2019-05-13T13:05:49.783Z,24.40
2019-05-13T13:08:38.344Z,24.20
2019-05-13T13:10:47.383Z,24.20
2019-05-13T13:13:15.647Z,24.00
2019-05-13T13:15:48.616Z,24.60
2019-05-13T13:18:14.286Z,24.80
2019-05-13T13:20:42.951Z,25.20
2019-05-13T13:23:12.893Z,25.60
2019-05-13T13:25:44.225Z,25.60
2019-05-13T13:28:14.327Z,26.20
2019-05-13T13:30:39.369Z,25.10
2019-05-13T13:33:07.649Z,25.20
2019-05-13T13:35:35.666Z,25.50
2019-05-13T13:38:04.331Z,25.00
2019-05-13T13:40:34.685Z,25.00
2019-05-13T13:43:05.243Z,26.60
2019-05-13T13:45:36.761Z,26.90
2019-05-13T13:48:04.097Z,27.20
2019-05-13T13:50:33.526Z,27.40
2019-05-13T13:53:02.165Z,27.30
2019-05-13T13:55:32.146Z,27.00
2019-05-13T13:58:02.251Z,25.60
2019-05-13T14:00:44.920Z,26.00
2019-05-13T14:03:06.015Z,26.30
2019-05-13T14:05:35.930Z,25.90
2019-05-13T14:08:01.660Z,25.30
2019-05-13T14:10:31.763Z,24.00
2019-05-13T14:13:04.253Z,24.30
2019-05-13T14:15:32.070Z,24.30
2019-05-13T14:18:00.258Z,24.90
2019-05-13T14:20:28.368Z,24.90
2019-05-13T14:22:58.081Z,25.10
2019-05-13T14:25:25.736Z,25.60
2019-05-13T14:27:53.762Z,26.10
2019-05-13T14:30:22.076Z,26.50
2019-05-13T14:32:51.884Z,25.70
2019-05-13T14:35:22.064Z,25.90
2019-05-13T14:37:51.870Z,26.00
2019-05-13T14:40:22.240Z,26.30
2019-05-13T14:42:52.374Z,27.90
2019-05-13T14:45:21.332Z,28.40
2019-05-13T14:47:49.545Z,29.20
2019-05-13T14:50:17.429Z,28.60
2019-05-13T14:52:45.103Z,28.80
2019-05-13T14:55:13.387Z,29.40
2019-05-13T14:57:41.928Z,30.70
2019-05-13T15:00:10.636Z,32.20
2019-05-13T15:02:39.302Z,33.70
2019-05-13T15:05:07.274Z,33.30
2019-05-13T15:07:35.405Z,32.20
2019-05-13T15:10:05.833Z,30.50
2019-05-13T15:12:33.728Z,29.40
2019-05-13T15:15:01.669Z,30.00
2019-05-13T15:17:32.493Z,29.90
2019-05-13T15:20:01.698Z,28.90
2019-05-13T15:22:28.750Z,28.90
2019-05-13T15:24:56.758Z,30.60
2019-05-13T15:27:24.965Z,32.10
2019-05-13T15:29:53.099Z,33.30
2019-05-13T15:32:21.735Z,34.30
2019-05-13T15:34:51.726Z,35.10
2019-05-13T15:37:22.265Z,35.20
2019-05-13T15:39:51.857Z,35.20
2019-05-13T15:42:21.425Z,35.50
2019-05-13T15:44:49.727Z,35.20
2019-05-13T15:47:23.320Z,35.20
2019-05-13T15:49:47.707Z,35.60
2019-05-13T15:52:15.683Z,35.40
2019-05-13T15:54:43.583Z,34.10
2019-05-13T15:57:11.941Z,33.00
2019-05-13T15:59:41.514Z,32.80
2019-05-13T16:02:11.756Z,32.70
2019-05-13T16:04:49.912Z,34.00
2019-05-13T16:07:09.042Z,33.80
2019-05-13T16:09:37.555Z,33.60
2019-05-13T16:12:05.392Z,34.50
2019-05-13T16:14:33.871Z,35.00
2019-05-13T16:17:02.027Z,35.40
2019-05-13T16:19:32.623Z,36.20
2019-05-13T16:22:01.386Z,36.90
2019-05-13T16:24:31.932Z,37.00
2019-05-13T16:27:02.482Z,37.20
2019-05-13T16:29:31.523Z,37.80
2019-05-13T16:32:02.132Z,38.20
2019-05-13T16:34:31.891Z,38.10
2019-05-13T16:37:01.816Z,38.20
2019-05-13T16:39:31.972Z,38.80
2019-05-13T16:42:00.269Z,38.30
2019-05-13T16:44:31.204Z,38.50
2019-05-13T16:47:01.486Z,38.50
2019-05-13T16:49:31.854Z,38.40
2019-05-13T16:52:02.512Z,38.60
2019-05-13T16:54:32.577Z,39.00
2019-05-13T16:57:01.164Z,38.90
2019-05-13T16:59:33.693Z,38.50
2019-05-13T17:02:01.996Z,38.70
2019-05-13T17:04:31.914Z,38.60
2019-05-13T17:07:01.571Z,38.70
2019-05-13T17:09:32.098Z,38.80
2019-05-13T17:12:01.438Z,38.70
2019-05-13T17:14:32.288Z,38.70
2019-05-13T17:17:01.981Z,38.70
2019-05-13T17:19:31.791Z,38.70
2019-05-13T17:22:02.322Z,38.90
2019-05-13T17:24:31.856Z,38.90
2019-05-13T17:27:01.920Z,38.90
2019-05-13T17:29:31.721Z,38.80
2019-05-13T17:32:02.355Z,38.90
2019-05-13T17:34:31.878Z,39.40
2019-05-13T17:37:02.353Z,39.40
2019-05-13T17:39:31.930Z,39.70
2019-05-13T17:42:01.471Z,39.70
2019-05-13T17:44:31.804Z,39.90
2019-05-13T17:47:02.184Z,40.00
2019-05-13T17:49:31.821Z,39.90
2019-05-13T17:52:02.120Z,40.40
2019-05-13T17:54:31.830Z,40.70
2019-05-13T17:57:01.833Z,40.50
2019-05-13T17:59:31.432Z,40.80
2019-05-13T18:02:02.302Z,41.10
2019-05-13T18:04:31.483Z,41.10
2019-05-13T18:07:01.387Z,41.30
2019-05-13T18:09:31.834Z,41.50
2019-05-13T18:11:59.468Z,41.80
2019-05-13T18:14:28.089Z,42.00
2019-05-13T18:16:55.735Z,42.20
2019-05-13T18:19:25.794Z,42.60
2019-05-13T18:21:53.704Z,42.70
2019-05-13T18:24:21.919Z,43.40
2019-05-13T18:26:52.015Z,43.70
2019-05-13T18:29:22.697Z,44.70
2019-05-13T18:31:52.417Z,44.30
2019-05-13T18:34:21.575Z,44.40
2019-05-13T18:36:51.550Z,44.70
2019-05-13T18:39:21.451Z,45.20
2019-05-13T18:41:49.767Z,45.50
2019-05-13T18:44:17.671Z,45.70
2019-05-13T18:46:45.348Z,47.40
2019-05-13T18:49:14.052Z,47.70
2019-05-13T18:51:42.332Z,47.60
2019-05-13T18:54:11.972Z,47.90
2019-05-13T18:56:41.952Z,47.90
2019-05-13T18:59:12.532Z,48.40
2019-05-13T19:01:44.523Z,48.50
2019-05-13T19:04:12.490Z,48.90
2019-05-13T19:06:42.259Z,49.90
2019-05-13T19:09:11.210Z,50.70
2019-05-13T19:11:39.458Z,51.60
2019-05-13T19:14:07.325Z,51.80
2019-05-13T19:16:35.409Z,52.50
2019-05-13T19:19:12.501Z,54.20
2019-05-13T19:21:33.264Z,55.20
2019-05-13T19:24:02.109Z,58.20
2019-05-13T19:26:30.342Z,59.30
2019-05-13T19:29:01.967Z,61.60
2019-05-13T19:31:32.331Z,63.60
2019-05-13T19:34:01.459Z,65.40
2019-05-13T19:36:29.422Z,71.50
2019-05-13T19:38:58.613Z,70.00
2019-05-13T19:41:26.671Z,71.60
2019-05-13T19:43:54.730Z,70.00
2019-05-13T19:46:25.605Z,73.30
2019-05-13T19:48:52.353Z,77.90
2019-05-13T19:51:21.631Z,79.90
2019-05-13T19:53:51.647Z,83.70
2019-05-13T19:56:21.442Z,85.00
2019-05-13T19:58:49.532Z,85.60
2019-05-13T20:01:18.569Z,87.30
2019-05-13T20:03:46.155Z,90.10
2019-05-13T20:06:14.493Z,90.60
2019-05-13T20:08:42.431Z,91.10
2019-05-13T20:11:11.506Z,90.20
2019-05-13T20:13:41.791Z,93.30
2019-05-13T20:16:11.540Z,94.20
2019-05-13T20:18:41.253Z,93.70
2019-05-13T20:21:11.224Z,93.80
2019-05-13T20:23:38.411Z,95.60
2019-05-13T20:26:06.171Z,96.90
2019-05-13T20:28:34.230Z,97.80
2019-05-13T20:31:02.128Z,99.10
2019-05-13T20:33:31.954Z,97.60
2019-05-13T20:36:01.619Z,99.20
2019-05-13T20:38:31.638Z,99.90
2019-05-13T20:41:01.290Z,99.90
2019-05-13T20:43:29.636Z,99.90
2019-05-13T20:46:01.734Z,99.90
2019-05-13T22:02:45.724Z,99.90
2019-05-13T22:05:13.198Z,99.90
2019-05-13T22:07:42.081Z,99.90
2019-05-13T22:12:37.326Z,99.90
2019-05-13T22:15:05.428Z,99.90
2019-05-13T22:17:33.510Z,99.90
2019-05-13T22:20:01.848Z,99.90
2019-05-13T22:22:32.099Z,99.90
2019-05-13T22:25:01.957Z,99.90
2019-05-13T22:27:29.572Z,99.90
2019-05-13T22:29:57.002Z,99.90
2019-05-13T22:32:24.853Z,99.90
2019-05-13T22:34:52.320Z,99.90
2019-05-13T22:37:20.477Z,99.90
2019-05-13T22:39:48.736Z,99.90
2019-05-13T22:42:16.773Z,99.90
2019-05-13T22:44:44.485Z,99.90
2019-05-13T22:47:13.433Z,99.90
2019-05-13T22:49:41.892Z,99.90
2019-05-13T22:52:11.414Z,99.90
2019-05-13T22:54:41.064Z,99.90
2019-05-13T22:57:08.663Z,99.90
2019-05-13T22:59:36.151Z,99.90
2019-05-13T23:02:03.947Z,99.90
2019-05-13T23:04:31.890Z,99.90
2019-05-13T23:07:01.272Z,99.90
2019-05-13T23:09:29.200Z,99.90
2019-05-13T23:11:56.912Z,99.90
2019-05-13T23:14:24.462Z,99.90
2019-05-13T23:16:51.897Z,99.90
2019-05-13T23:19:21.539Z,99.90
2019-05-13T23:21:51.165Z,99.90
2019-05-13T23:24:18.785Z,99.90
2019-05-13T23:26:46.490Z,99.90
2019-05-13T23:29:14.554Z,99.90
2019-05-13T23:31:42.259Z,99.90
2019-05-13T23:34:11.839Z,99.90
2019-05-13T23:36:42.102Z,99.90
2019-05-13T23:39:11.551Z,99.90
2019-05-13T23:41:39.021Z,99.90
2019-05-13T23:44:19.977Z,99.90
2019-05-13T23:46:36.904Z,99.90
2019-05-13T23:49:04.348Z,99.90
2019-05-13T23:51:32.229Z,99.90
2019-05-13T23:54:01.582Z,99.90
2019-05-13T23:56:31.091Z,99.90
2019-05-13T23:58:58.634Z,99.90
